Time;durP1;ratioP1;P1;durP2;ratioP2;P2;SDS_P1;SDS_P2;PMS_P1;PMS_P2;Temp;Humidity;BMP_temperature;BMP_pressure;BME280_temperature;BME280_humidity;BME280_pressure;Samples;Min_cycle;Max_cycle;Signal;HPM_P1;HPM_P2
2022/05/16 00:02:01;;;;;;;;;;;;;;;7.18;74.26;100056.94;5116023;27;20337;-71
2022/05/16 00:04:26;;;;;;;;;;;;;;;7.19;75.36;100055.84;5104641;28;20414;-71
2022/05/16 00:06:51;;;;;;;;;;;;;;;7.19;75.28;100064.84;5109529;28;20286;-71
2022/05/16 00:09:17;;;;;;;;;;;;;;;7.16;75.23;100057.22;5097701;28;19965;-71
2022/05/16 00:11:42;;;;;;;;;;;;;;;7.19;74.92;100058.56;5100369;28;19920;-71
2022/05/16 00:14:08;;;;;;;;;;;;;;;7.20;75.01;100058.28;5095371;28;20023;-71
2022/05/16 00:16:33;;;;;;;;;;;;;;;7.17;74.78;100056.13;5093899;28;20002;-72
2022/05/16 00:18:59;;;;;;;;;;;;;;;7.18;75.31;100059.66;5094434;28;20022;-71
2022/05/16 00:21:25;;;;;;;;;;;;;;;7.15;75.26;100057.47;5093841;28;19933;-71
2022/05/16 00:23:50;;;;;;;;;;;;;;;7.12;75.33;100058.03;5094822;28;20521;-71
2022/05/16 00:26:16;;;;;;;;;;;;;;;7.07;74.80;100058.00;5096353;28;20374;-71
2022/05/16 00:28:41;;;;;;;;;;;;;;;7.05;75.75;100057.47;5104864;28;19931;-71
2022/05/16 00:31:07;;;;;;;;;;;;;;;7.05;75.62;100055.56;5096964;28;19920;-71
2022/05/16 00:33:32;;;;;;;;;;;;;;;7.08;75.31;100051.47;5096388;28;20337;-71
2022/05/16 00:35:58;;;;;;;;;;;;;;;7.11;75.27;100056.38;5108484;28;19927;-71
2022/05/16 00:38:24;;;;;;;;;;;;;;;7.13;75.99;100057.75;5112365;28;19926;-71
2022/05/16 00:40:49;;;;;;;;;;;;;;;7.10;76.16;100057.47;5114064;28;19973;-71
2022/05/16 00:43:34;;;;;;;;;;;;;;;7.07;75.89;100060.75;5094266;28;20302;-71
2022/05/16 00:46:00;;;;;;;;;;;;;;;7.03;76.13;100059.66;5113604;28;19984;-71
2022/05/16 00:48:27;;;;;;;;;;;;;;;6.99;76.01;100059.38;5108055;28;20465;-71
2022/05/16 00:50:52;;;;;;;;;;;;;;;7.00;76.27;100062.94;5095618;28;19946;-71
2022/05/16 00:53:18;;;;;;;;;;;;;;;6.96;75.37;100059.94;5098665;28;20291;-71
2022/05/16 00:55:44;;;;;;;;;;;;;;;6.97;76.58;100063.47;5095400;28;19993;-72
2022/05/16 00:58:13;;;;;;;;;;;;;;;6.97;75.73;100060.75;5099657;27;19920;-72
2022/05/16 01:00:39;;;;;;;;;;;;;;;6.91;75.95;100052.53;5105995;28;19968;-72
2022/05/16 01:05:53;;;;;;;;;;;;;;;6.94;76.58;100053.91;5108079;28;19988;-71
2022/05/16 01:08:22;;;;;;;;;;;;;;;6.94;76.37;100051.16;5106202;28;19920;-71
2022/05/16 01:10:47;;;;;;;;;;;;;;;6.93;76.12;100046.81;5081066;28;19958;-72
2022/05/16 01:13:13;;;;;;;;;;;;;;;6.96;76.62;100046.28;5095883;28;20345;-71
2022/05/16 01:15:41;;;;;;;;;;;;;;;6.94;76.97;100049.28;5117944;27;19966;-71
2022/05/16 01:18:09;;;;;;;;;;;;;;;6.91;76.56;100049.81;5123786;27;19920;-72
2022/05/16 01:20:53;;;;;;;;;;;;;;;6.91;76.95;100049.81;5105629;28;19920;-72
2022/05/16 01:23:20;;;;;;;;;;;;;;;6.90;77.16;100045.44;5099691;28;20290;-71
2022/05/16 01:25:47;;;;;;;;;;;;;;;6.83;78.12;100044.91;5110609;28;20022;-71
2022/05/16 01:28:15;;;;;;;;;;;;;;;6.85;78.44;100048.19;5107094;28;19972;-72
2022/05/16 01:30:41;;;;;;;;;;;;;;;6.96;78.20;100043.56;5094925;28;19920;-71
2022/05/16 01:33:06;;;;;;;;;;;;;;;6.89;79.25;100049.28;5100094;28;20306;-71
2022/05/16 01:35:32;;;;;;;;;;;;;;;6.93;79.21;100044.91;5094089;28;19919;-71
2022/05/16 01:40:42;;;;;;;;;;;;;;;7.01;80.05;100050.94;5102057;28;19920;-71
2022/05/16 01:43:08;;;;;;;;;;;;;;;6.99;79.88;100050.38;5095128;28;19919;-72
2022/05/16 01:45:34;;;;;;;;;;;;;;;6.92;80.34;100051.44;5106511;28;20049;-72
2022/05/16 01:47:59;;;;;;;;;;;;;;;6.90;79.64;100044.63;5106948;28;20011;-71
2022/05/16 01:50:25;;;;;;;;;;;;;;;6.87;80.39;100045.19;5098607;28;19920;-72
2022/05/16 01:52:50;;;;;;;;;;;;;;;6.82;80.89;100048.72;5108639;28;20436;-73
2022/05/16 01:55:16;;;;;;;;;;;;;;;6.83;80.45;100055.81;5106811;28;19926;-72
2022/05/16 01:57:42;;;;;;;;;;;;;;;6.84;80.95;100049.28;5093223;28;20462;-71
2022/05/16 02:00:09;;;;;;;;;;;;;;;6.81;81.61;100055.28;5109047;28;19919;-72
2022/05/16 02:02:39;;;;;;;;;;;;;;;6.81;81.04;100052.53;5096672;28;19919;-71
2022/05/16 02:05:05;;;;;;;;;;;;;;;6.77;81.78;100050.59;5112125;27;20049;-72
2022/05/16 02:07:30;;;;;;;;;;;;;;;6.77;81.49;100053.34;5093119;28;20382;-71
2022/05/16 02:09:55;;;;;;;;;;;;;;;6.79;81.75;100051.19;5111934;28;20317;-72
2022/05/16 02:12:21;;;;;;;;;;;;;;;6.82;81.78;100051.44;5106619;28;19967;-72
2022/05/16 02:14:46;;;;;;;;;;;;;;;6.79;82.05;100052.00;5094245;28;19996;-71
2022/05/16 02:17:12;;;;;;;;;;;;;;;6.78;82.38;100057.72;5104789;28;19919;-71
2022/05/16 02:19:37;;;;;;;;;;;;;;;6.77;81.95;100056.06;5092891;28;19919;-71
2022/05/16 02:24:47;;;;;;;;;;;;;;;6.79;82.44;100065.63;5093972;28;20374;-71
2022/05/16 02:27:13;;;;;;;;;;;;;;;6.81;82.21;100063.44;5092205;28;20019;-71
2022/05/16 02:29:38;;;;;;;;;;;;;;;6.84;82.24;100056.63;5099307;28;19934;-71
2022/05/16 02:32:04;;;;;;;;;;;;;;;6.85;82.58;100063.72;5112399;28;19927;-71
2022/05/16 02:34:30;;;;;;;;;;;;;;;6.83;83.25;100066.72;5095524;28;19920;-72
2022/05/16 02:36:56;;;;;;;;;;;;;;;6.84;83.13;100068.38;5116167;27;19924;-72
2022/05/16 02:39:21;;;;;;;;;;;;;;;6.90;82.69;100070.00;5114011;27;20542;-71
2022/05/16 02:41:47;;;;;;;;;;;;;;;6.87;83.02;100064.28;5108696;28;20015;-72
2022/05/16 02:44:12;;;;;;;;;;;;;;;6.86;82.64;100070.81;5111178;28;20450;-72
2022/05/16 02:46:38;;;;;;;;;;;;;;;6.87;82.37;100067.00;5106714;28;19928;-72
2022/05/16 02:49:03;;;;;;;;;;;;;;;6.97;83.00;100068.94;5108567;28;19934;-72
2022/05/16 02:51:29;;;;;;;;;;;;;;;6.99;82.48;100072.19;5108457;28;19973;-72
2022/05/16 02:53:55;;;;;;;;;;;;;;;6.95;82.51;100071.94;5109124;28;19967;-72
2022/05/16 02:56:20;;;;;;;;;;;;;;;6.96;82.61;100079.03;5109502;28;19966;-72
2022/05/16 02:58:45;;;;;;;;;;;;;;;6.99;82.99;100072.19;5095580;28;19981;-72
2022/05/16 03:01:11;;;;;;;;;;;;;;;6.93;82.52;100072.19;5108581;28;20018;-72
2022/05/16 03:03:38;;;;;;;;;;;;;;;6.94;82.72;100068.38;5111754;28;20394;-72
2022/05/16 03:06:04;;;;;;;;;;;;;;;6.95;83.80;100071.94;5108170;27;19921;-72
2022/05/16 03:08:29;;;;;;;;;;;;;;;6.97;83.55;100074.38;5092383;28;19927;-72
2022/05/16 03:10:57;;;;;;;;;;;;;;;7.02;83.03;100068.94;5110930;28;19920;-71
2022/05/16 03:13:23;;;;;;;;;;;;;;;7.09;83.01;100078.47;5106093;28;20010;-71
2022/05/16 03:15:49;;;;;;;;;;;;;;;7.07;83.72;100079.84;5096347;28;19986;-71
2022/05/16 03:18:14;;;;;;;;;;;;;;;7.07;83.78;100082.56;5091516;28;20024;-72
2022/05/16 03:20:40;;;;;;;;;;;;;;;7.07;83.34;100082.56;5099220;28;19942;-72
2022/05/16 03:23:05;;;;;;;;;;;;;;;7.06;83.77;100084.47;5091425;28;20376;-71
2022/05/16 03:25:31;;;;;;;;;;;;;;;7.16;83.26;100089.13;5094696;28;19986;-71
2022/05/16 03:27:56;;;;;;;;;;;;;;;7.21;82.86;100086.41;5100530;28;19920;-71
2022/05/16 03:30:22;;;;;;;;;;;;;;;7.22;83.61;100085.31;5091357;28;20279;-71
2022/05/16 03:32:47;;;;;;;;;;;;;;;7.24;82.92;100083.13;5106623;28;20305;-72
2022/05/16 03:35:13;;;;;;;;;;;;;;;7.27;83.05;100088.03;5086998;28;20382;-72
2022/05/16 03:37:39;;;;;;;;;;;;;;;7.31;83.13;100083.69;5099411;28;19974;-71
2022/05/16 03:42:49;;;;;;;;;;;;;;;7.39;83.22;100085.03;5108663;28;19920;-71
2022/05/16 03:45:14;;;;;;;;;;;;;;;7.44;83.37;100088.56;5106264;28;20223;-72
2022/05/16 03:47:39;;;;;;;;;;;;;;;7.46;83.46;100097.31;5117544;27;19919;-72
2022/05/16 03:50:05;;;;;;;;;;;;;;;7.43;83.00;100095.13;5100203;28;20382;-72
2022/05/16 03:52:31;;;;;;;;;;;;;;;7.40;83.05;100092.13;5088961;28;20397;-72
2022/05/16 03:54:57;;;;;;;;;;;;;;;7.41;83.31;100100.03;5107846;28;19915;-71
2022/05/16 03:57:41;;;;;;;;;;;;;;;7.43;83.34;100094.31;5104839;28;19920;-72
2022/05/16 04:00:09;;;;;;;;;;;;;;;7.41;83.30;100099.22;5107133;28;19927;-72
2022/05/16 04:02:37;;;;;;;;;;;;;;;7.40;83.33;100098.41;5110768;28;19919;-71
2022/05/16 04:05:03;;;;;;;;;;;;;;;7.45;82.97;100100.31;5090505;28;19919;-72
2022/05/16 04:07:29;;;;;;;;;;;;;;;7.49;83.38;100101.41;5102361;28;19924;-72
2022/05/16 04:09:54;;;;;;;;;;;;;;;7.56;82.88;100110.13;5110038;28;20018;-72
2022/05/16 04:12:20;;;;;;;;;;;;;;;7.64;83.41;100106.06;5111544;28;19981;-72
2022/05/16 04:14:47;;;;;;;;;;;;;;;7.67;83.67;100116.41;5114900;28;20382;-72
2022/05/16 04:17:12;;;;;;;;;;;;;;;7.63;83.32;100115.31;5111215;28;19924;-72
2022/05/16 04:19:38;;;;;;;;;;;;;;;7.62;83.74;100114.50;5106103;28;20010;-72
2022/05/16 04:22:03;;;;;;;;;;;;;;;7.56;83.77;100118.31;5100399;28;19927;-72
2022/05/16 04:24:28;;;;;;;;;;;;;;;7.44;84.26;100124.06;5110690;28;19915;-72
2022/05/16 04:26:54;;;;;;;;;;;;;;;7.35;84.93;100124.88;5098373;28;19920;-72
2022/05/16 04:29:19;;;;;;;;;;;;;;;7.29;85.45;100118.63;5093326;28;19930;-72
2022/05/16 04:31:45;;;;;;;;;;;;;;;7.29;86.25;100128.69;5105935;28;19919;-72
2022/05/16 04:34:10;;;;;;;;;;;;;;;7.29;85.80;100128.69;5097356;28;19920;-72
2022/05/16 04:36:36;;;;;;;;;;;;;;;7.21;86.25;100127.31;5100533;28;19924;-72
2022/05/16 04:39:02;;;;;;;;;;;;;;;7.18;87.11;100127.88;5113300;28;19923;-72
2022/05/16 04:44:12;;;;;;;;;;;;;;;7.12;86.62;100123.50;5094810;28;19928;-71
2022/05/16 04:46:37;;;;;;;;;;;;;;;7.14;87.07;100124.06;5071675;28;20444;-72
2022/05/16 04:49:03;;;;;;;;;;;;;;;7.16;87.00;100124.59;5094750;28;19926;-73
2022/05/16 04:51:28;;;;;;;;;;;;;;;7.17;86.97;100124.31;5108525;28;20393;-72
2022/05/16 04:53:54;;;;;;;;;;;;;;;7.14;87.78;100132.25;5100001;28;19927;-72
2022/05/16 04:56:19;;;;;;;;;;;;;;;7.12;87.46;100127.06;5105263;28;20450;-72
2022/05/16 04:58:45;;;;;;;;;;;;;;;7.08;87.73;100122.41;5106575;28;20304;-72
2022/05/16 05:01:10;;;;;;;;;;;;;;;7.07;88.09;100131.66;5097805;28;19965;-72
2022/05/16 05:03:36;;;;;;;;;;;;;;;7.12;88.26;100118.88;5101191;28;19923;-72
2022/05/16 05:06:02;;;;;;;;;;;;;;;7.22;88.18;100134.41;5112338;28;19919;-72
2022/05/16 05:08:27;;;;;;;;;;;;;;;7.25;88.67;100120.22;5103907;28;19927;-72
2022/05/16 05:16:21;;;;;;;;;;;;;;;7.44;88.42;100121.31;5096115;28;19977;-72
2022/05/16 05:18:47;;;;;;;;;;;;;;;7.49;88.40;100128.72;5107490;27;19916;-72
2022/05/16 05:21:12;;;;;;;;;;;;;;;7.47;89.04;100136.38;5099222;28;19981;-71
2022/05/16 05:23:39;;;;;;;;;;;;;;;7.45;89.27;100130.34;5111752;28;19924;-71
2022/05/16 05:26:05;;;;;;;;;;;;;;;7.44;88.35;100129.50;5106172;28;19920;-71
2022/05/16 05:28:31;;;;;;;;;;;;;;;7.46;88.38;100140.16;5099924;28;19942;-71
2022/05/16 05:30:57;;;;;;;;;;;;;;;7.52;88.82;100130.91;5110673;28;20378;-72
2022/05/16 05:33:22;;;;;;;;;;;;;;;7.55;88.96;100131.16;5095219;28;20451;-71
2022/05/16 05:35:49;;;;;;;;;;;;;;;7.59;88.51;100130.59;5093167;28;19931;-71
2022/05/16 05:38:15;;;;;;;;;;;;;;;7.61;88.97;100139.34;5093033;28;19920;-72
2022/05/16 05:40:40;;;;;;;;;;;;;;;7.70;89.03;100140.44;5102394;28;19920;-72
2022/05/16 05:43:06;;;;;;;;;;;;;;;7.72;88.25;100139.06;5092955;28;19920;-72
2022/05/16 05:45:32;;;;;;;;;;;;;;;7.75;88.84;100138.53;5093847;28;19920;-72
2022/05/16 05:47:57;;;;;;;;;;;;;;;7.83;88.68;100137.16;5100729;28;19920;-71
2022/05/16 05:50:24;;;;;;;;;;;;;;;7.88;88.75;100145.34;5093459;28;19927;-72
2022/05/16 05:52:49;;;;;;;;;;;;;;;7.92;88.12;100151.06;5094642;28;20430;-72
2022/05/16 05:55:15;;;;;;;;;;;;;;;7.98;88.69;100153.50;5103607;28;19920;-72
2022/05/16 05:57:40;;;;;;;;;;;;;;;8.00;87.85;100156.81;5112334;28;20309;-72
2022/05/16 06:00:06;;;;;;;;;;;;;;;7.98;88.26;100155.41;5110878;28;20290;-72
2022/05/16 06:02:32;;;;;;;;;;;;;;;8.00;87.71;100154.06;5095458;28;19923;-72
2022/05/16 06:04:57;;;;;;;;;;;;;;;8.03;87.80;100152.69;5108459;28;20399;-72
2022/05/16 06:07:23;;;;;;;;;;;;;;;8.00;88.55;100156.81;5101199;28;19920;-72
2022/05/16 06:09:49;;;;;;;;;;;;;;;8.01;87.77;100157.63;5098401;28;20076;-72
2022/05/16 06:12:14;;;;;;;;;;;;;;;8.06;87.85;100165.81;5112347;28;19920;-72
2022/05/16 06:14:43;;;;;;;;;;;;;;;8.08;87.51;100152.69;5113674;28;19927;-72
2022/05/16 06:17:09;;;;;;;;;;;;;;;8.06;87.03;100160.34;5113828;28;19955;-72
2022/05/16 06:19:36;;;;;;;;;;;;;;;8.04;86.96;100174.28;5108510;28;19920;-72
2022/05/16 06:22:02;;;;;;;;;;;;;;;8.02;87.10;100171.00;5106502;28;20378;-72
2022/05/16 06:27:19;;;;;;;;;;;;;;;7.99;86.94;100165.28;5088415;28;20048;-72
2022/05/16 06:29:45;;;;;;;;;;;;;;;8.04;86.76;100168.81;5094687;28;20010;-72
2022/05/16 06:32:10;;;;;;;;;;;;;;;8.09;87.18;100171.53;5092775;28;19978;-72
2022/05/16 06:34:36;;;;;;;;;;;;;;;8.12;87.11;100170.16;5092460;28;19975;-71
2022/05/16 06:37:01;;;;;;;;;;;;;;;8.13;87.39;100172.59;5074655;28;19927;-72
2022/05/16 06:39:26;;;;;;;;;;;;;;;8.11;87.07;100166.59;5092575;28;19920;-72
2022/05/16 06:41:52;;;;;;;;;;;;;;;8.10;86.51;100178.63;5105622;28;19931;-72
2022/05/16 06:44:19;;;;;;;;;;;;;;;8.13;86.15;100182.72;5105619;28;19920;-72
2022/05/16 06:46:44;;;;;;;;;;;;;;;8.14;85.76;100174.25;5095326;28;19920;-74
2022/05/16 06:49:10;;;;;;;;;;;;;;;8.15;85.45;100184.06;5094199;28;19923;-71
2022/05/16 06:51:36;;;;;;;;;;;;;;;8.16;86.22;100185.75;5097806;28;20060;-72
2022/05/16 06:54:02;;;;;;;;;;;;;;;8.14;85.45;100193.38;5102332;28;19920;-71
2022/05/16 06:56:27;;;;;;;;;;;;;;;8.15;85.34;100192.28;5092390;28;19988;-72
2022/05/16 06:58:52;;;;;;;;;;;;;;;8.15;84.37;100192.28;5093534;28;20023;-71
2022/05/16 07:01:18;;;;;;;;;;;;;;;8.14;84.45;100190.63;5092258;28;20408;-71
2022/05/16 07:03:43;;;;;;;;;;;;;;;8.13;84.36;100197.19;5106514;28;20576;-72
2022/05/16 07:06:09;;;;;;;;;;;;;;;8.19;84.77;100203.50;5106271;28;20399;-71
2022/05/16 07:08:35;;;;;;;;;;;;;;;8.22;84.06;100197.47;5112387;28;19920;-71
2022/05/16 07:11:00;;;;;;;;;;;;;;;8.24;84.54;100205.41;5111198;28;19916;-71
2022/05/16 07:13:26;;;;;;;;;;;;;;;8.24;84.15;100205.41;5110712;28;20440;-72
2022/05/16 07:15:52;;;;;;;;;;;;;;;8.24;84.24;100216.31;5092378;28;20394;-72
2022/05/16 07:18:17;;;;;;;;;;;;;;;8.24;84.17;100208.94;5091986;28;20374;-71
2022/05/16 07:20:43;;;;;;;;;;;;;;;8.22;83.90;100224.00;5108377;28;20019;-72
2022/05/16 07:23:08;;;;;;;;;;;;;;;8.18;84.62;100218.25;5112292;28;19920;-72
2022/05/16 07:28:18;;;;;;;;;;;;;;;8.15;83.69;100225.06;5111752;28;19919;-72
2022/05/16 07:30:43;;;;;;;;;;;;;;;8.16;83.69;100226.75;5111397;28;19919;-71
2022/05/16 07:33:09;;;;;;;;;;;;;;;8.15;83.24;100222.34;5112486;28;19926;-72
2022/05/16 07:35:35;;;;;;;;;;;;;;;8.10;83.51;100221.53;5111820;28;19996;-72
2022/05/16 07:38:01;;;;;;;;;;;;;;;8.07;83.95;100225.63;5092100;28;19920;-72
2022/05/16 07:40:27;;;;;;;;;;;;;;;8.07;82.89;100227.56;5091704;28;20008;-72
2022/05/16 07:42:53;;;;;;;;;;;;;;;8.09;82.85;100239.03;5092987;28;19928;-71
2022/05/16 07:45:19;;;;;;;;;;;;;;;8.07;83.44;100233.03;5111575;28;19973;-71
2022/05/16 07:47:45;;;;;;;;;;;;;;;8.04;83.01;100239.84;5111482;28;19946;-72
2022/05/16 07:50:10;;;;;;;;;;;;;;;8.06;82.34;100234.13;5111930;28;19967;-71
2022/05/16 07:52:36;;;;;;;;;;;;;;;8.09;82.48;100231.66;5108551;28;19920;-72
2022/05/16 07:55:02;;;;;;;;;;;;;;;8.10;82.46;100230.56;5107486;28;19920;-72
2022/05/16 07:57:27;;;;;;;;;;;;;;;8.12;82.44;100231.09;5091243;28;19920;-72
2022/05/16 07:59:53;;;;;;;;;;;;;;;8.16;82.50;100248.59;5091076;28;19970;-72
2022/05/16 08:02:18;;;;;;;;;;;;;;;8.15;82.40;100246.94;5091453;28;19955;-72
2022/05/16 08:04:43;;;;;;;;;;;;;;;8.13;82.45;100245.56;5092259;28;19939;-72
2022/05/16 08:07:09;;;;;;;;;;;;;;;8.12;82.05;100254.88;5096297;28;19924;-71
2022/05/16 08:12:29;;;;;;;;;;;;;;;8.11;81.77;100256.78;5098234;28;19951;-72
2022/05/16 08:14:54;;;;;;;;;;;;;;;8.14;81.60;100263.59;5111585;28;20373;-71
2022/05/16 08:17:20;;;;;;;;;;;;;;;8.18;82.38;100261.16;5111728;28;19926;-71
2022/05/16 08:19:46;;;;;;;;;;;;;;;8.23;82.12;100261.97;5111431;28;19919;-71
2022/05/16 08:22:11;;;;;;;;;;;;;;;8.25;82.05;100262.53;5111490;28;20419;-71
2022/05/16 08:24:37;;;;;;;;;;;;;;;8.27;81.46;100265.78;5111281;28;20580;-71
2022/05/16 08:27:02;;;;;;;;;;;;;;;8.25;81.39;100267.16;5111227;28;19927;-71
2022/05/16 08:29:29;;;;;;;;;;;;;;;8.26;81.62;100279.75;5095187;28;20014;-70
2022/05/16 08:31:55;;;;;;;;;;;;;;;8.24;81.04;100271.81;5091050;28;19920;-72
2022/05/16 08:34:21;;;;;;;;;;;;;;;8.27;81.09;100268.53;5091177;28;20014;-70
2022/05/16 08:42:15;;;;;;;;;;;;;;;8.35;80.58;100278.94;5091239;28;19919;-72
2022/05/16 08:44:57;;;;;;;;;;;;;;;8.37;80.62;100278.69;5097631;28;20247;-71
2022/05/16 08:47:42;;;;;;;;;;;;;;;8.41;80.55;100294.25;5110265;28;19920;-70
2022/05/16 08:50:19;;;;;;;;;;;;;;;8.43;80.86;100288.50;5111470;28;19977;-71
2022/05/16 08:52:54;;;;;;;;;;;;;;;8.41;80.07;100293.44;5110037;28;19919;-71
2022/05/16 08:55:30;;;;;;;;;;;;;;;8.39;79.61;100290.97;5109630;28;19928;-74
2022/05/16 08:57:57;;;;;;;;;;;;;;;8.40;79.91;100289.06;5097381;28;19920;-73
2022/05/16 09:00:25;;;;;;;;;;;;;;;8.46;80.78;100293.41;5098365;28;19920;-73
2022/05/16 09:02:51;;;;;;;;;;;;;;;8.50;79.64;100296.41;5094333;28;19920;-74
2022/05/16 09:05:24;;;;;;;;;;;;;;;8.50;79.82;100297.22;5113044;27;20297;-74
2022/05/16 09:07:51;;;;;;;;;;;;;;;8.52;79.89;100288.78;5112366;28;19926;-74
2022/05/16 09:10:21;;;;;;;;;;;;;;;8.58;79.49;100302.16;5114827;28;19916;-74
2022/05/16 09:12:47;;;;;;;;;;;;;;;8.62;78.58;100295.03;5094542;28;19955;-74
2022/05/16 09:15:25;;;;;;;;;;;;;;;8.67;78.77;100300.47;5110213;27;19958;-73
2022/05/16 09:18:15;;;;;;;;;;;;;;;8.69;78.40;100306.53;5094267;28;20002;-74
2022/05/16 09:20:40;;;;;;;;;;;;;;;8.72;78.47;100307.88;5109681;27;19927;-76
2022/05/16 09:23:10;;;;;;;;;;;;;;;8.74;78.21;100306.50;5094209;28;19920;-75
2022/05/16 09:25:56;;;;;;;;;;;;;;;8.75;78.76;100304.59;5116791;27;19938;-75
2022/05/16 09:28:37;;;;;;;;;;;;;;;8.78;78.74;100306.75;5102736;27;20389;-75
2022/05/16 09:31:10;;;;;;;;;;;;;;;8.77;78.70;100307.84;5121123;27;19919;-76
2022/05/16 09:33:38;;;;;;;;;;;;;;;8.77;77.73;100314.16;5104920;27;20549;-75
2022/05/16 09:36:08;;;;;;;;;;;;;;;8.74;78.33;100314.72;5096467;28;19924;-75
2022/05/16 09:38:33;;;;;;;;;;;;;;;8.71;77.50;100314.44;5092348;28;19924;-75
2022/05/16 09:40:59;;;;;;;;;;;;;;;8.67;78.08;100316.88;5092452;28;19920;-75
2022/05/16 09:43:25;;;;;;;;;;;;;;;8.67;78.19;100321.53;5110390;27;19920;-75
2022/05/16 09:46:00;;;;;;;;;;;;;;;8.67;77.81;100319.63;5096510;28;19916;-75
2022/05/16 09:48:25;;;;;;;;;;;;;;;8.69;78.17;100324.84;5095945;28;19926;-76
2022/05/16 09:50:57;;;;;;;;;;;;;;;8.72;78.48;100330.59;5109996;28;19915;-77
2022/05/16 09:53:27;;;;;;;;;;;;;;;8.72;78.18;100327.03;5098467;28;19920;-75
2022/05/16 09:55:54;;;;;;;;;;;;;;;8.72;77.53;100330.59;5101577;28;19920;-75
2022/05/16 09:58:20;;;;;;;;;;;;;;;8.69;78.57;100336.59;5093365;28;20298;-75
2022/05/16 10:00:53;;;;;;;;;;;;;;;8.65;77.98;100332.75;5129381;27;19919;-74
2022/05/16 10:03:28;;;;;;;;;;;;;;;8.64;78.81;100335.78;5101697;28;19955;-75
2022/05/16 10:05:53;;;;;;;;;;;;;;;8.67;78.11;100340.69;5101266;28;19954;-75
2022/05/16 10:08:42;;;;;;;;;;;;;;;8.71;78.22;100339.88;5095402;28;19927;-75
2022/05/16 10:11:11;;;;;;;;;;;;;;;8.76;78.72;100334.41;5090318;28;19919;-73
2022/05/16 10:13:36;;;;;;;;;;;;;;;8.80;78.85;100353.81;5092281;28;20019;-77
2022/05/16 10:16:02;;;;;;;;;;;;;;;8.83;78.83;100344.22;5109139;28;20018;-77
2022/05/16 10:18:28;;;;;;;;;;;;;;;8.85;78.79;100350.22;5112801;28;20010;-77
2022/05/16 10:20:55;;;;;;;;;;;;;;;8.85;78.01;100348.34;5102849;28;20023;-78
2022/05/16 10:23:22;;;;;;;;;;;;;;;8.84;78.77;100351.34;5112489;28;19923;-78
2022/05/16 10:25:48;;;;;;;;;;;;;;;8.83;78.55;100352.44;5109251;28;20385;-76
2022/05/16 10:28:20;;;;;;;;;;;;;;;8.79;77.96;100354.09;5108775;28;19973;-77
2022/05/16 10:33:30;;;;;;;;;;;;;;;8.75;78.47;100359.28;5091381;28;20048;-77
2022/05/16 10:35:58;;;;;;;;;;;;;;;8.76;78.61;100372.69;5088051;27;20541;-78
2022/05/16 10:38:26;;;;;;;;;;;;;;;8.78;78.20;100364.22;5113744;27;19951;-77
2022/05/16 10:40:54;;;;;;;;;;;;;;;8.76;77.69;100367.22;5093413;28;19975;-76
2022/05/16 10:43:38;;;;;;;;;;;;;;;8.81;77.95;100371.03;5116847;27;19959;-79
2022/05/16 10:46:12;;;;;;;;;;;;;;;8.88;78.13;100366.94;5106037;27;20502;-80
2022/05/16 10:48:45;;;;;;;;;;;;;;;8.92;77.85;100376.22;5122346;27;19926;-79
2022/05/16 10:51:12;;;;;;;;;;;;;;;9.02;78.06;100378.09;5125469;27;19926;-80
2022/05/16 10:53:55;;;;;;;;;;;;;;;9.07;77.56;100367.16;5125172;27;20019;-77
2022/05/16 10:56:26;;;;;;;;;;;;;;;9.17;77.57;100371.78;5091819;28;19916;-78
2022/05/16 10:59:04;;;;;;;;;;;;;;;9.27;76.90;100382.72;5091849;28;20030;-78
2022/05/16 11:01:32;;;;;;;;;;;;;;;9.36;76.77;100379.09;5097231;28;19925;-78
2022/05/16 11:03:57;;;;;;;;;;;;;;;9.44;76.38;100376.91;5111781;28;19926;-78
2022/05/16 11:06:23;;;;;;;;;;;;;;;9.51;76.04;100377.41;5108518;28;19955;-78
2022/05/16 11:08:57;;;;;;;;;;;;;;;9.52;76.28;100379.88;5092324;28;19927;-78
2022/05/16 11:11:28;;;;;;;;;;;;;;;9.55;75.03;100378.50;5090996;28;19955;-78
2022/05/16 11:14:05;;;;;;;;;;;;;;;9.50;75.91;100371.13;5074041;28;20425;-78
2022/05/16 11:16:35;;;;;;;;;;;;;;;9.46;75.01;100374.69;5090824;28;20371;-78
2022/05/16 11:19:07;;;;;;;;;;;;;;;9.44;75.57;100385.13;5110924;28;20020;-77
2022/05/16 11:21:52;;;;;;;;;;;;;;;9.35;75.86;100382.94;5110853;28;19920;-76
2022/05/16 11:24:36;;;;;;;;;;;;;;;9.29;76.74;100378.59;5112542;28;19919;-77
2022/05/16 11:27:03;;;;;;;;;;;;;;;9.29;76.50;100386.81;5106034;28;19923;-76
2022/05/16 11:29:28;;;;;;;;;;;;;;;9.33;76.51;100390.63;5090521;28;19920;-77
2022/05/16 11:31:57;;;;;;;;;;;;;;;9.33;75.88;100387.06;5090546;28;20018;-77
2022/05/16 11:34:26;;;;;;;;;;;;;;;9.30;77.17;100390.38;5098836;28;20404;-77
2022/05/16 11:36:54;;;;;;;;;;;;;;;9.29;76.63;100392.28;5106408;28;20020;-77
2022/05/16 11:39:20;;;;;;;;;;;;;;;9.27;76.50;100402.69;5111068;28;19964;-77
2022/05/16 11:41:49;;;;;;;;;;;;;;;9.27;76.93;100404.63;5111240;28;20346;-77
2022/05/16 11:44:15;;;;;;;;;;;;;;;9.24;76.15;100406.00;5103655;28;20026;-77
2022/05/16 11:46:54;;;;;;;;;;;;;;;9.27;76.74;100402.69;5099139;28;20030;-77
2022/05/16 11:49:19;;;;;;;;;;;;;;;9.24;76.24;100400.53;5101362;28;19919;-77
2022/05/16 11:51:48;;;;;;;;;;;;;;;9.23;77.13;100396.16;5101375;28;19919;-77
2022/05/16 11:54:14;;;;;;;;;;;;;;;9.22;76.49;100405.47;5105591;28;20427;-77
2022/05/16 12:02:18;;;;;;;;;;;;;;;9.13;77.96;100409.03;5107071;28;20442;-77
2022/05/16 12:04:45;;;;;;;;;;;;;;;9.10;77.91;100413.16;5109258;28;19923;-78
2022/05/16 12:07:18;;;;;;;;;;;;;;;9.09;78.13;100411.50;5090120;28;19931;-78
2022/05/16 12:09:55;;;;;;;;;;;;;;;9.12;77.68;100410.94;5104904;28;20014;-77
2022/05/16 12:12:35;;;;;;;;;;;;;;;9.13;78.53;100412.59;5110812;28;19926;-78
2022/05/16 12:15:13;;;;;;;;;;;;;;;9.16;77.67;100416.69;5103411;28;20022;-78
2022/05/16 12:17:48;;;;;;;;;;;;;;;9.13;77.61;100411.75;5111571;28;20306;-78
2022/05/16 12:20:14;;;;;;;;;;;;;;;9.16;78.71;100409.28;5100491;28;19930;-77
2022/05/16 12:22:39;;;;;;;;;;;;;;;9.20;77.97;100421.34;5097862;28;19919;-78
2022/05/16 12:25:24;;;;;;;;;;;;;;;9.23;77.92;100418.06;5107215;28;19927;-80
2022/05/16 12:27:52;;;;;;;;;;;;;;;9.28;78.28;100423.50;5096053;28;19920;-80
2022/05/16 12:30:20;;;;;;;;;;;;;;;9.29;77.30;100424.31;5071084;28;19920;-79
2022/05/16 12:32:47;;;;;;;;;;;;;;;9.31;78.04;100425.69;5101314;28;19963;-80
2022/05/16 12:35:14;;;;;;;;;;;;;;;9.29;77.81;100425.13;5114439;27;19919;-79
2022/05/16 12:37:40;;;;;;;;;;;;;;;9.26;77.60;100425.69;5112780;27;20390;-84
2022/05/16 12:40:05;;;;;;;;;;;;;;;9.24;78.09;100427.09;5115630;27;19920;-74
2022/05/16 12:42:37;;;;;;;;;;;;;;;9.18;78.15;100423.50;5103109;28;19923;-76
2022/05/16 12:45:26;;;;;;;;;;;;;;;9.16;78.33;100430.38;5110802;28;19953;-73
2022/05/16 12:48:10;;;;;;;;;;;;;;;9.14;78.67;100433.38;5073982;28;19950;-79
2022/05/16 12:50:52;;;;;;;;;;;;;;;9.12;79.65;100432.84;5107010;28;20010;-75
2022/05/16 12:53:30;;;;;;;;;;;;;;;9.08;79.38;100434.50;5076587;28;19920;-78
2022/05/16 12:55:56;;;;;;;;;;;;;;;9.01;80.66;100434.75;5094824;28;19973;-75
2022/05/16 12:58:27;;;;;;;;;;;;;;;8.98;80.73;100439.97;5107577;28;19924;-75
2022/05/16 13:01:19;;;;;;;;;;;;;;;8.97;80.80;100439.16;5100589;28;20414;-78
2022/05/16 13:04:03;;;;;;;;;;;;;;;8.97;81.52;100443.81;5099774;28;19973;-75
2022/05/16 13:06:55;;;;;;;;;;;;;;;8.91;81.83;100445.75;5099232;28;19919;-74
2022/05/16 13:09:25;;;;;;;;;;;;;;;8.85;82.21;100451.47;5094966;28;20083;-74
2022/05/16 13:11:50;;;;;;;;;;;;;;;8.81;81.99;100456.69;5098941;28;19919;-75
2022/05/16 13:14:22;;;;;;;;;;;;;;;8.79;82.08;100458.88;5097921;28;19943;-76
2022/05/16 13:16:52;;;;;;;;;;;;;;;8.80;82.92;100449.56;5102248;28;19959;-76
2022/05/16 13:19:18;;;;;;;;;;;;;;;8.77;82.08;100456.41;5085180;28;19969;-79
2022/05/16 13:21:46;;;;;;;;;;;;;;;8.75;83.26;100455.88;5094622;28;19928;-78
2022/05/16 13:24:13;;;;;;;;;;;;;;;8.73;83.30;100451.75;5101706;28;20285;-77
2022/05/16 13:29:22;;;;;;;;;;;;;;;8.77;83.33;100453.66;5101764;28;19926;-77
2022/05/16 13:31:50;;;;;;;;;;;;;;;8.84;83.57;100452.56;5106155;27;19919;-78
2022/05/16 13:34:27;;;;;;;;;;;;;;;8.89;83.85;100447.94;5099059;27;19942;-79
2022/05/16 13:36:53;;;;;;;;;;;;;;;8.95;83.68;100457.78;5107367;27;19964;-78